DLH152 EDDS-LFPG
Flight info
| Callsign | DLH152 |
|---|---|
| Flight time | N/A |
| Altitude | 220 |
| Route | VESID2H/07 VESID Y127 TUDGA Z738 NOKDI Z104 AGBUL T894 BITBU Y180 DIK UN857 TOLVU DCT RAPOR DCT VEDUS VEDUS9 |
| Aircraft | A320/M-SDE2E3FGHIRWXY/LB1 |
Departure
| Time | 2026-05-01 13:42 |
|---|---|
| Airport | Stuttgart Airport (EDDS) |
Arrival
| Time | N/A |
|---|---|
| Airport | Charles de Gaulle International Airport (LFPG) |
| Time | Latitude | Longitude | Altitude | Speed | Heading |
|---|---|---|---|---|---|
| 2026-05-01 13:10 | 48.68918 | 9.19513 | 1295 ft | 0 kts | 343° |
| 2026-05-01 13:28 | 48.68912 | 9.19515 | 1295 ft | 2 kts | 344° |
| 2026-05-01 13:29 | 48.68873 | 9.19528 | 1295 ft | 3 kts | 356° |
| 2026-05-01 13:29 | 48.68835 | 9.19519 | 1295 ft | 3 kts | 50° |
| 2026-05-01 13:30 | 48.68830 | 9.19509 | 1295 ft | 1 kts | 72° |
| 2026-05-01 13:33 | 48.68834 | 9.19524 | 1295 ft | 3 kts | 72° |
| 2026-05-01 13:33 | 48.68841 | 9.19558 | 1295 ft | 0 kts | 72° |
| 2026-05-01 13:38 | 48.68848 | 9.19591 | 1295 ft | 5 kts | 72° |
| 2026-05-01 13:38 | 48.68860 | 9.19648 | 1295 ft | 1 kts | 73° |
| 2026-05-01 13:38 | 48.68866 | 9.19679 | 1295 ft | 5 kts | 75° |
| 2026-05-01 13:39 | 48.68878 | 9.19743 | 1295 ft | 8 kts | 75° |
| 2026-05-01 13:39 | 48.68886 | 9.19849 | 1292 ft | 11 kts | 103° |
| 2026-05-01 13:39 | 48.68821 | 9.19922 | 1291 ft | 14 kts | 155° |
| 2026-05-01 13:39 | 48.68747 | 9.19960 | 1291 ft | 10 kts | 164° |
| 2026-05-01 13:40 | 48.68729 | 9.19968 | 1291 ft | 4 kts | 164° |
| 2026-05-01 13:40 | 48.68686 | 9.19986 | 1290 ft | 9 kts | 165° |
| 2026-05-01 13:40 | 48.68616 | 9.20023 | 1288 ft | 12 kts | 145° |
| 2026-05-01 13:40 | 48.68602 | 9.20161 | 1290 ft | 16 kts | 73° |
| 2026-05-01 13:41 | 48.68612 | 9.20214 | 1285 ft | 0 kts | 73° |
| 2026-05-01 13:41 | 48.68616 | 9.20234 | 1288 ft | 10 kts | 73° |
| 2026-05-01 13:42 | 48.68721 | 9.20816 | 1271 ft | 102 kts | 72° |
| 2026-05-01 13:42 | 48.68990 | 9.22210 | 1251 ft | 170 kts | 73° |
| 2026-05-01 13:42 | 48.69344 | 9.24075 | 1743 ft | 197 kts | 73° |
| 2026-05-01 13:42 | 48.69740 | 9.26183 | 2579 ft | 217 kts | 75° |
| 2026-05-01 13:43 | 48.70147 | 9.28420 | 3744 ft | 225 kts | 76° |
| 2026-05-01 13:43 | 48.70618 | 9.30744 | 4755 ft | 240 kts | 75° |
| 2026-05-01 13:43 | 48.71163 | 9.33293 | 5225 ft | 264 kts | 75° |
| 2026-05-01 13:43 | 48.71698 | 9.35984 | 5007 ft | 266 kts | 76° |
| 2026-05-01 13:44 | 48.72207 | 9.38642 | 4888 ft | 261 kts | 77° |
| 2026-05-01 13:44 | 48.72798 | 9.41250 | 4816 ft | 268 kts | 63° |
| 2026-05-01 13:44 | 48.74072 | 9.43277 | 5207 ft | 275 kts | 34° |
| 2026-05-01 13:44 | 48.75915 | 9.44196 | 6072 ft | 285 kts | 7° |
| 2026-05-01 13:45 | 48.77879 | 9.43974 | 7247 ft | 285 kts | 346° |
| 2026-05-01 13:45 | 48.79742 | 9.42877 | 8184 ft | 292 kts | 330° |
| 2026-05-01 13:45 | 48.81501 | 9.41262 | 9139 ft | 297 kts | 330° |
| 2026-05-01 13:45 | 48.83323 | 9.39726 | 10141 ft | 302 kts | 333° |
| 2026-05-01 13:46 | 48.85217 | 9.38263 | 10842 ft | 315 kts | 335° |
| 2026-05-01 13:46 | 48.87282 | 9.36739 | 11225 ft | 339 kts | 335° |
| 2026-05-01 13:46 | 48.89399 | 9.35008 | 11726 ft | 355 kts | 324° |
| 2026-05-01 13:46 | 48.91111 | 9.32276 | 12575 ft | 360 kts | 303° |
| 2026-05-01 13:47 | 48.92139 | 9.28800 | 13088 ft | 364 kts | 284° |
| 2026-05-01 13:47 | 48.92603 | 9.24992 | 13550 ft | 366 kts | 277° |
| 2026-05-01 13:47 | 48.92878 | 9.21163 | 13996 ft | 368 kts | 275° |
| 2026-05-01 13:47 | 48.93146 | 9.17248 | 14405 ft | 371 kts | 276° |
| 2026-05-01 13:48 | 48.93459 | 9.13344 | 14810 ft | 373 kts | 277° |
| 2026-05-01 13:48 | 48.93819 | 9.09469 | 15215 ft | 375 kts | 278° |
| 2026-05-01 13:48 | 48.94225 | 9.05499 | 15633 ft | 377 kts | 279° |
| 2026-05-01 13:48 | 48.94644 | 9.01561 | 16055 ft | 379 kts | 279° |
| 2026-05-01 13:49 | 48.95094 | 8.97601 | 16476 ft | 380 kts | 284° |
| 2026-05-01 13:49 | 48.96126 | 8.93890 | 16913 ft | 384 kts | 304° |
| 2026-05-01 13:49 | 48.97885 | 8.90899 | 17337 ft | 384 kts | 323° |
| 2026-05-01 13:49 | 49.00216 | 8.88891 | 17800 ft | 386 kts | 340° |
| 2026-05-01 13:50 | 49.02726 | 8.87483 | 18247 ft | 387 kts | 342° |
| 2026-05-01 13:50 | 49.05304 | 8.86118 | 18690 ft | 390 kts | 342° |
| 2026-05-01 13:50 | 49.07851 | 8.84717 | 19077 ft | 392 kts | 341° |
| 2026-05-01 13:50 | 49.10404 | 8.83243 | 19492 ft | 393 kts | 340° |
| 2026-05-01 13:51 | 49.12960 | 8.81719 | 19906 ft | 395 kts | 339° |
| 2026-05-01 13:51 | 49.15577 | 8.80367 | 20203 ft | 395 kts | 347° |
| 2026-05-01 13:51 | 49.18259 | 8.79681 | 20294 ft | 393 kts | 358° |
| 2026-05-01 13:51 | 49.20995 | 8.79818 | 20297 ft | 390 kts | 7° |
| 2026-05-01 13:52 | 49.23672 | 8.80287 | 20299 ft | 391 kts | 8° |
| 2026-05-01 13:52 | 49.26379 | 8.80760 | 20297 ft | 390 kts | 8° |
| 2026-05-01 13:52 | 49.28195 | 8.81051 | 20305 ft | 391 kts | 7° |
| 2026-05-01 13:52 | 49.30892 | 8.81446 | 20639 ft | 395 kts | 7° |
| 2026-05-01 13:53 | 49.33630 | 8.81823 | 21414 ft | 394 kts | 6° |
| 2026-05-01 13:53 | 49.40062 | 8.82681 | 22293 ft | 399 kts | 6° |
| 2026-05-01 13:53 | 49.41901 | 8.82929 | 22300 ft | 399 kts | 6° |
| 2026-05-01 13:54 | 49.44664 | 8.83302 | 22298 ft | 398 kts | 6° |
| 2026-05-01 13:54 | 49.47445 | 8.83682 | 22300 ft | 399 kts | 6° |
| 2026-05-01 13:54 | 49.50193 | 8.84058 | 22303 ft | 399 kts | 6° |
| 2026-05-01 13:54 | 49.52989 | 8.84440 | 22301 ft | 399 kts | 6° |
| 2026-05-01 13:55 | 49.55719 | 8.84766 | 22300 ft | 400 kts | 1° |
| 2026-05-01 13:55 | 49.58497 | 8.84268 | 22303 ft | 403 kts | 346° |
| 2026-05-01 13:55 | 49.61094 | 8.82629 | 22304 ft | 407 kts | 330° |
| 2026-05-01 13:55 | 49.63353 | 8.79940 | 22302 ft | 409 kts | 319° |
| 2026-05-01 13:56 | 49.65446 | 8.76990 | 22305 ft | 409 kts | 318° |
| 2026-05-01 13:56 | 49.67321 | 8.74321 | 22303 ft | 409 kts | 319° |
| 2026-05-01 13:56 | 49.68771 | 8.72279 | 22303 ft | 409 kts | 319° |
| 2026-05-01 13:57 | 49.70900 | 8.69323 | 22307 ft | 409 kts | 320° |
| 2026-05-01 13:57 | 49.73017 | 8.66410 | 22301 ft | 410 kts | 320° |
| 2026-05-01 13:57 | 49.75153 | 8.63483 | 22302 ft | 410 kts | 320° |
| 2026-05-01 13:57 | 49.77287 | 8.60562 | 22315 ft | 409 kts | 320° |
| 2026-05-01 13:58 | 49.79408 | 8.57652 | 22314 ft | 410 kts | 320° |
| 2026-05-01 13:58 | 49.81545 | 8.54713 | 22315 ft | 410 kts | 320° |
| 2026-05-01 13:58 | 49.83694 | 8.51747 | 22313 ft | 410 kts | 319° |
| 2026-05-01 13:58 | 49.85606 | 8.48533 | 22318 ft | 411 kts | 307° |
| 2026-05-01 13:59 | 49.87003 | 8.44683 | 22317 ft | 412 kts | 292° |
| 2026-05-01 13:59 | 49.87806 | 8.40415 | 22318 ft | 413 kts | 283° |
| 2026-05-01 13:59 | 49.88423 | 8.36039 | 22317 ft | 413 kts | 282° |
| 2026-05-01 13:59 | 49.89030 | 8.31712 | 22300 ft | 413 kts | 283° |
| 2026-05-01 14:00 | 49.89666 | 8.27329 | 22302 ft | 413 kts | 283° |
| 2026-05-01 14:00 | 49.90309 | 8.23028 | 22301 ft | 413 kts | 283° |
| 2026-05-01 14:00 | 49.90975 | 8.18636 | 22302 ft | 413 kts | 284° |
| 2026-05-01 14:00 | 49.91636 | 8.14295 | 22305 ft | 414 kts | 284° |
| 2026-05-01 14:01 | 49.92296 | 8.09955 | 22304 ft | 413 kts | 283° |
| 2026-05-01 14:01 | 49.92948 | 8.05644 | 22306 ft | 413 kts | 283° |
| 2026-05-01 14:01 | 49.93607 | 8.01275 | 22307 ft | 414 kts | 283° |
| 2026-05-01 14:01 | 49.94257 | 7.96949 | 22305 ft | 413 kts | 283° |
| 2026-05-01 14:02 | 49.95030 | 7.92624 | 22306 ft | 413 kts | 287° |
| 2026-05-01 14:02 | 49.95882 | 7.88398 | 22307 ft | 413 kts | 288° |
| 2026-05-01 14:02 | 49.96744 | 7.84124 | 22307 ft | 413 kts | 287° |
| 2026-05-01 14:02 | 49.97591 | 7.79833 | 22307 ft | 413 kts | 287° |
| 2026-05-01 14:03 | 49.98408 | 7.75586 | 22308 ft | 413 kts | 286° |
| 2026-05-01 14:03 | 49.99232 | 7.71256 | 22309 ft | 413 kts | 287° |
| 2026-05-01 14:03 | 50.00082 | 7.66995 | 22312 ft | 412 kts | 287° |
| 2026-05-01 14:03 | 50.00954 | 7.62747 | 22308 ft | 412 kts | 288° |
| 2026-05-01 14:04 | 50.01833 | 7.58501 | 22308 ft | 413 kts | 288° |
| 2026-05-01 14:04 | 50.02710 | 7.54261 | 22310 ft | 412 kts | 288° |
| 2026-05-01 14:04 | 50.03582 | 7.50023 | 22314 ft | 413 kts | 288° |
| 2026-05-01 14:04 | 50.04453 | 7.45772 | 22312 ft | 413 kts | 287° |
| 2026-05-01 14:05 | 50.05324 | 7.41502 | 22317 ft | 413 kts | 287° |
| 2026-05-01 14:05 | 50.06181 | 7.37264 | 22316 ft | 413 kts | 287° |
| 2026-05-01 14:05 | 50.07050 | 7.32943 | 22317 ft | 413 kts | 287° |
| 2026-05-01 14:05 | 50.07765 | 7.28610 | 22316 ft | 414 kts | 280° |
| 2026-05-01 14:06 | 50.08122 | 7.24179 | 22316 ft | 413 kts | 273° |
| 2026-05-01 14:06 | 50.08295 | 7.19752 | 22314 ft | 413 kts | 272° |
| 2026-05-01 14:06 | 50.08452 | 7.15253 | 22318 ft | 414 kts | 272° |
| 2026-05-01 14:06 | 50.08613 | 7.10759 | 22321 ft | 414 kts | 272° |
| 2026-05-01 14:07 | 50.08782 | 7.06286 | 22322 ft | 414 kts | 272° |
| 2026-05-01 14:07 | 50.08959 | 7.01832 | 22319 ft | 414 kts | 273° |
| 2026-05-01 14:07 | 50.09141 | 6.97333 | 22316 ft | 413 kts | 273° |
| 2026-05-01 14:08 | 50.09499 | 6.88422 | 22311 ft | 414 kts | 271° |
| 2026-05-01 14:08 | 50.09491 | 6.83928 | 22267 ft | 413 kts | 268° |
| 2026-05-01 14:08 | 50.09312 | 6.79444 | 22264 ft | 412 kts | 259° |
| 2026-05-01 14:08 | 50.08486 | 6.75257 | 22269 ft | 411 kts | 243° |
| 2026-05-01 14:09 | 50.06964 | 6.71496 | 22266 ft | 407 kts | 228° |
| 2026-05-01 14:09 | 50.05082 | 6.68246 | 22266 ft | 406 kts | 225° |
| 2026-05-01 14:09 | 50.03150 | 6.64983 | 22268 ft | 406 kts | 226° |
| 2026-05-01 14:09 | 50.01272 | 6.61753 | 22266 ft | 406 kts | 226° |
| 2026-05-01 14:10 | 49.99427 | 6.58407 | 22268 ft | 406 kts | 231° |
| 2026-05-01 14:10 | 49.97866 | 6.54765 | 22265 ft | 407 kts | 239° |
| 2026-05-01 14:10 | 49.96606 | 6.50767 | 22264 ft | 409 kts | 246° |
| 2026-05-01 14:10 | 49.95534 | 6.46714 | 22262 ft | 409 kts | 246° |
| 2026-05-01 14:11 | 49.94448 | 6.42593 | 22262 ft | 408 kts | 246° |
| 2026-05-01 14:11 | 49.92237 | 6.34458 | 22260 ft | 408 kts | 245° |
| 2026-05-01 14:11 | 49.91111 | 6.30426 | 22263 ft | 407 kts | 245° |
| 2026-05-01 14:12 | 49.89986 | 6.26436 | 22260 ft | 407 kts | 244° |
| 2026-05-01 14:12 | 49.88811 | 6.22436 | 22260 ft | 407 kts | 244° |
| 2026-05-01 14:12 | 49.87647 | 6.18403 | 22263 ft | 407 kts | 245° |
| 2026-05-01 14:12 | 49.86501 | 6.14423 | 22264 ft | 407 kts | 242° |
| 2026-05-01 14:13 | 49.85112 | 6.10576 | 22266 ft | 405 kts | 235° |
| 2026-05-01 14:13 | 49.84059 | 6.08211 | 22266 ft | 405 kts | 232° |
| 2026-05-01 14:13 | 49.81865 | 6.03507 | 22266 ft | 404 kts | 232° |
| 2026-05-01 14:13 | 49.80189 | 5.99936 | 22264 ft | 404 kts | 232° |
| 2026-05-01 14:14 | 49.78556 | 5.96443 | 22265 ft | 404 kts | 232° |
| 2026-05-01 14:14 | 49.76904 | 5.92891 | 22265 ft | 403 kts | 232° |
| 2026-05-01 14:14 | 49.75284 | 5.89348 | 22266 ft | 404 kts | 235° |
| 2026-05-01 14:14 | 49.73877 | 5.85621 | 22266 ft | 405 kts | 242° |
| 2026-05-01 14:15 | 49.72785 | 5.81612 | 22266 ft | 406 kts | 249° |
| 2026-05-01 14:15 | 49.71850 | 5.77469 | 22264 ft | 406 kts | 250° |
| 2026-05-01 14:15 | 49.70937 | 5.73338 | 22265 ft | 406 kts | 250° |
| 2026-05-01 14:15 | 49.70018 | 5.69221 | 22261 ft | 406 kts | 249° |
| 2026-05-01 14:16 | 49.69084 | 5.65106 | 22261 ft | 405 kts | 249° |
| 2026-05-01 14:16 | 49.68165 | 5.61119 | 22262 ft | 405 kts | 249° |
| 2026-05-01 14:16 | 49.67180 | 5.56887 | 22261 ft | 405 kts | 249° |
| 2026-05-01 14:16 | 49.66217 | 5.52775 | 22260 ft | 405 kts | 249° |
| 2026-05-01 14:17 | 49.65255 | 5.48686 | 22261 ft | 405 kts | 248° |
| 2026-05-01 14:17 | 49.64293 | 5.44601 | 22261 ft | 404 kts | 248° |
| 2026-05-01 14:17 | 49.63342 | 5.40573 | 22261 ft | 405 kts | 248° |
| 2026-05-01 14:17 | 49.62378 | 5.36491 | 22257 ft | 404 kts | 249° |
| 2026-05-01 14:18 | 49.61448 | 5.32383 | 22252 ft | 404 kts | 250° |
| 2026-05-01 14:18 | 49.60560 | 5.28251 | 22250 ft | 404 kts | 250° |
| 2026-05-01 14:18 | 49.59738 | 5.24114 | 22249 ft | 405 kts | 255° |
| 2026-05-01 14:18 | 49.59348 | 5.21293 | 22256 ft | 406 kts | 259° |
| 2026-05-01 14:19 | 49.59055 | 5.15487 | 22254 ft | 407 kts | 270° |
| 2026-05-01 14:19 | 49.59128 | 5.11113 | 22254 ft | 408 kts | 271° |
| 2026-05-01 14:19 | 49.59220 | 5.06740 | 22258 ft | 408 kts | 270° |
| 2026-05-01 14:19 | 49.59298 | 5.02427 | 22247 ft | 408 kts | 270° |
| 2026-05-01 14:20 | 49.59360 | 4.98055 | 22248 ft | 408 kts | 270° |
| 2026-05-01 14:20 | 49.59443 | 4.89312 | 22247 ft | 407 kts | 269° |
| 2026-05-01 14:20 | 49.59472 | 4.84948 | 22246 ft | 407 kts | 269° |
| 2026-05-01 14:21 | 49.59496 | 4.80570 | 22247 ft | 407 kts | 269° |
| 2026-05-01 14:21 | 49.59519 | 4.76196 | 22243 ft | 407 kts | 269° |
| 2026-05-01 14:21 | 49.59539 | 4.71827 | 22247 ft | 407 kts | 269° |
| 2026-05-01 14:22 | 49.59578 | 4.63137 | 22243 ft | 407 kts | 269° |
| 2026-05-01 14:22 | 49.59594 | 4.59007 | 22240 ft | 407 kts | 269° |
| 2026-05-01 14:22 | 49.59610 | 4.54636 | 22242 ft | 407 kts | 268° |
| 2026-05-01 14:22 | 49.59625 | 4.50265 | 22244 ft | 407 kts | 268° |
| 2026-05-01 14:23 | 49.59638 | 4.45897 | 22239 ft | 407 kts | 268° |
| 2026-05-01 14:23 | 49.59650 | 4.41529 | 22239 ft | 407 kts | 268° |
| 2026-05-01 14:23 | 49.59662 | 4.37151 | 22239 ft | 407 kts | 268° |
| 2026-05-01 14:23 | 49.59671 | 4.32814 | 22237 ft | 407 kts | 268° |
| 2026-05-01 14:24 | 49.59678 | 4.28403 | 22235 ft | 408 kts | 268° |
| 2026-05-01 14:24 | 49.59684 | 4.24025 | 22235 ft | 408 kts | 268° |
| 2026-05-01 14:24 | 49.59689 | 4.19665 | 22235 ft | 408 kts | 268° |
| 2026-05-01 14:24 | 49.59692 | 4.15323 | 22234 ft | 408 kts | 268° |
| 2026-05-01 14:25 | 49.59653 | 4.10941 | 22228 ft | 407 kts | 262° |
| 2026-05-01 14:25 | 49.59362 | 4.08079 | 22231 ft | 404 kts | 253° |
| 2026-05-01 14:25 | 49.58426 | 4.04013 | 22229 ft | 401 kts | 241° |
| 2026-05-01 14:25 | 49.56478 | 3.99188 | 22226 ft | 398 kts | 233° |
| 2026-05-01 14:26 | 49.55434 | 3.96841 | 22146 ft | 396 kts | 233° |
| 2026-05-01 14:26 | 49.52385 | 3.89828 | 21291 ft | 390 kts | 234° |
| 2026-05-01 14:26 | 49.50924 | 3.86374 | 20746 ft | 387 kts | 235° |
| 2026-05-01 14:27 | 49.49466 | 3.82900 | 20193 ft | 384 kts | 235° |
| 2026-05-01 14:27 | 49.48103 | 3.79385 | 19659 ft | 382 kts | 241° |
| 2026-05-01 14:27 | 49.47055 | 3.75642 | 19136 ft | 380 kts | 249° |
| 2026-05-01 14:28 | 49.45734 | 3.67806 | 18047 ft | 376 kts | 255° |
| 2026-05-01 14:28 | 49.45134 | 3.63885 | 17431 ft | 373 kts | 254° |
| 2026-05-01 14:28 | 49.44521 | 3.60009 | 16895 ft | 370 kts | 253° |
| 2026-05-01 14:28 | 49.43902 | 3.56222 | 16333 ft | 368 kts | 253° |
| 2026-05-01 14:29 | 49.43263 | 3.52420 | 15790 ft | 365 kts | 253° |
| 2026-05-01 14:29 | 49.42617 | 3.48640 | 15360 ft | 360 kts | 252° |
| 2026-05-01 14:30 | 49.39712 | 3.38085 | 14984 ft | 356 kts | 239° |
| 2026-05-01 14:30 | 49.38554 | 3.34749 | 14585 ft | 354 kts | 238° |
| 2026-05-01 14:30 | 49.37410 | 3.31438 | 14091 ft | 352 kts | 239° |
| 2026-05-01 14:31 | 49.35144 | 3.24812 | 13262 ft | 345 kts | 239° |
| 2026-05-01 14:31 | 49.34028 | 3.21525 | 13199 ft | 349 kts | 239° |